Energy Centaur — 2AJU3 — position and weather

sailwx.info

Track history (hours):
 
Tides and Currents Weather Stations Pressure Air Temp Water Temp Dewpoint Dewpoint Depression Visibility Wind Speed Wind Dir Waves Ship Positions

Energy Centaur

Last reported at 2017-Sep-21 22:51 UTC. Time now 2017-Sep-26 01:57 UTC.
Position N 25°28' W 079°35'.

Length 227 m; draft 8 m.

Type: Tanker. MMSI: 235060303.

Date/timePositionNaut miles runAvg speedWind from/ knotsBaromVisibWave heightAir tempDewpointWater temp
2017-Sep-21 22:51N 25°28' W 079°35'411.6
2017-Sep-21 22:30N 25°32' W 079°34'611.9
2017-Sep-21 22:00N 25°38' W 079°34'612.1
2017-Sep-21 21:31N 25°44' W 079°33'612.0
2017-Sep-21 21:00N 25°50' W 079°32'611.9
2017-Sep-21 20:30N 25°56' W 079°31'611.9
2017-Sep-21 20:00N 26°02' W 079°30'611.9
2017-Sep-21 19:31N 26°08' W 079°29'612.0
2017-Sep-21 19:00N 26°14' W 079°28'612.0
2017-Sep-21 18:31N 26°19' W 079°27'612.0
2017-Sep-21 18:00N 26°26' W 079°27'  
2017-Sep-18 22:34N 38°04' W 074°26'212.4
2017-Sep-18 22:26N 38°05' W 074°26'512.4
2017-Sep-18 21:59N 38°10' W 074°24'612.1
2017-Sep-18 21:30N 38°16' W 074°21'612.6
2017-Sep-18 21:00N 38°22' W 074°19'612.7
2017-Sep-18 20:30N 38°28' W 074°16'612.4
2017-Sep-18 20:00N 38°33' W 074°12'712.5
2017-Sep-18 19:28N 38°39' W 074°09'613.1
2017-Sep-18 19:00N 38°45' W 074°07'713.1
2017-Sep-18 18:31N 38°51' W 074°04'713.2
2017-Sep-18 17:59N 38°58' W 074°01'813.2
2017-Sep-18 17:24N 39°05' W 073°58'513.5
2017-Sep-18 17:00N 39°10' W 073°56'713.6
2017-Sep-18 16:28N 39°17' W 073°53'613.5
2017-Sep-18 16:00N 39°24' W 073°53'713.6
2017-Sep-18 15:30N 39°31' W 073°52'713.6
2017-Sep-18 15:00N 39°37' W 073°51'713.7
2017-Sep-18 14:31N 39°44' W 073°51'713.5
2017-Sep-18 14:00N 39°51' W 073°51'713.6
2017-Sep-18 13:30N 39°58' W 073°50'813.7
2017-Sep-18 12:54N 40°06' W 073°50'513.5
2017-Sep-18 12:31N 40°11' W 073°50'913.7
2017-Sep-18 11:53N 40°20' W 073°49'613.0
2017-Sep-18 11:27N 40°25' W 073°50'4 9.1
2017-Sep-18 11:00N 40°27' W 073°55'611.2
2017-Sep-18 10:30N 40°29' W 074°02'612.3
2017-Sep-18 10:00N 40°30' W 074°09'4 6.4
2017-Sep-18 09:18N 40°31' W 074°15'2 6.0
2017-Sep-18 09:00N 40°33' W 074°15'2 4.6
2017-Sep-18 08:30N 40°34' W 074°13'2 4.5
2017-Sep-18 08:00N 40°36' W 074°12'0 0.3
2017-Sep-18 07:29N 40°37' W 074°12'0 0.0
2017-Sep-18 06:59N 40°37' W 074°12'0 0.0
2017-Sep-18 06:29N 40°37' W 074°12'0 0.0
2017-Sep-18 04:20N 40°37' W 074°12'0 0.0
2017-Sep-18 03:56N 40°37' W 074°12'0 0.0
2017-Sep-18 03:26N 40°37' W 074°12'0 0.0
2017-Sep-18 01:38N 40°37' W 074°12'0 0.0
2017-Sep-17 23:56N 40°37' W 074°12'0 0.0
2017-Sep-17 23:26N 40°37' W 074°12'0 0.0
2017-Sep-17 22:56N 40°37' W 074°12'0 0.0
2017-Sep-17 22:26N 40°37' W 074°12'0 0.0
2017-Sep-17 21:14N 40°37' W 074°12'0 0.0
2017-Sep-17 20:59N 40°37' W 074°12'0 0.0
2017-Sep-17 20:29N 40°37' W 074°12'0 0.0
2017-Sep-17 19:32N 40°37' W 074°12'0 0.0
2017-Sep-17 19:02N 40°37' W 074°12'0 0.0
2017-Sep-17 15:02N 40°37' W 074°12'0 0.0
2017-Sep-17 14:56N 40°37' W 074°12'0 0.0
2017-Sep-17 14:14N 40°37' W 074°12'0 0.0
2017-Sep-16 23:32N 40°37' W 074°12'0 0.0
2017-Sep-16 23:20N 40°37' W 074°12'0 0.0
2017-Sep-16 23:00N 40°37' W 074°12'0 0.0
2017-Sep-16 22:30N 40°37' W 074°12'1 2.3
2017-Sep-16 22:00N 40°38' W 074°12'3 5.0
2017-Sep-16 21:30N 40°39' W 074°09'4 7.6
2017-Sep-16 21:00N 40°39' W 074°04'510.6
2017-Sep-16 20:30N 40°34' W 074°02'713.0
2017-Sep-16 20:00N 40°30' W 073°55'611.3
2017-Sep-16 19:30N 40°27' W 073°49'3 5.8
2017-Sep-16 19:00N 40°28' W 073°45'5 9.3
2017-Sep-16 18:30N 40°29' W 073°39'1 0.3
2017-Sep-16 14:43N 40°29' W 073°38'0 0.1
2017-Sep-16 14:28N 40°29' W 073°38'0 0.0
2017-Sep-16 13:58N 40°29' W 073°38'0 0.0
2017-Sep-16 13:19N 40°29' W 073°38'0 0.0
2017-Sep-16 12:58N 40°29' W 073°38'0 0.0
2017-Sep-16 12:28N 40°29' W 073°38'0 0.0
2017-Sep-16 11:52N 40°29' W 073°38'0 0.1
2017-Sep-16 10:40N 40°29' W 073°38'0 0.0
2017-Sep-16 10:28N 40°29' W 073°38'0 0.1
2017-Sep-16 09:52N 40°29' W 073°38'0 0.1
2017-Sep-16 09:28N 40°29' W 073°38'0 0.1
2017-Sep-16 08:49N 40°29' W 073°38'0 0.0
2017-Sep-16 05:22N 40°29' W 073°38'0 0.1
2017-Sep-16 04:55N 40°29' W 073°38'0 0.1
2017-Sep-16 04:30N 40°29' W 073°38'0 0.1
2017-Sep-16 03:33N 40°29' W 073°38'0 0.1
2017-Sep-16 03:12N 40°29' W 073°38'1 2.4
2017-Sep-16 02:50N 40°30' W 073°39'3 9.5
2017-Sep-16 02:30N 40°29' W 073°42'510.2
2017-Sep-16 02:00N 40°28' W 073°49'612.7
2017-Sep-16 01:30N 40°30' W 073°56'612.8
2017-Sep-16 01:00N 40°35' W 074°02'3 5.9
2017-Sep-16 00:28N 40°38' W 074°04'0 0.0
2017-Sep-16 00:00N 40°38' W 074°04'0 0.3
2017-Sep-15 23:30N 40°38' W 074°04'0 0.4
2017-Sep-15 23:00N 40°38' W 074°04'0 0.1
2017-Sep-15 22:30N 40°38' W 074°04'0 0.0
2017-Sep-15 22:00N 40°38' W 074°04'0 0.0
2017-Sep-15 21:30N 40°38' W 074°04'0 0.1
2017-Sep-15 21:00N 40°38' W 074°04'0 0.1
2017-Sep-15 20:30N 40°38' W 074°04'0 0.1
2017-Sep-15 20:00N 40°38' W 074°04'0 0.0
2017-Sep-15 19:30N 40°38' W 074°04'0 0.0
2017-Sep-15 19:00N 40°38' W 074°04'0 0.1
2017-Sep-15 18:30N 40°38' W 074°04'0 0.0
2017-Sep-15 18:00N 40°38' W 074°04'0 0.0
2017-Sep-15 17:30N 40°38' W 074°04'0 0.4
2017-Sep-15 17:00N 40°38' W 074°04'0 0.3
2017-Sep-15 16:30N 40°38' W 074°04'0 0.0
2017-Sep-15 16:00N 40°37' W 074°04'0 0.0
2017-Sep-15 15:30N 40°37' W 074°04'0 0.0
2017-Sep-15 15:00N 40°37' W 074°04'0 0.0
2017-Sep-15 14:30N 40°37' W 074°04'0 0.0
2017-Sep-15 14:00N 40°37' W 074°04'0 0.0
2017-Sep-15 13:30N 40°37' W 074°04'0 0.0
2017-Sep-15 13:00N 40°37' W 074°04'0 0.1
2017-Sep-15 12:30N 40°37' W 074°04'0 0.0
2017-Sep-15 12:00N 40°37' W 074°04'0 0.1
2017-Sep-15 11:30N 40°37' W 074°04'0 0.2
2017-Sep-15 11:00N 40°38' W 074°04'0 0.4
2017-Sep-15 10:30N 40°38' W 074°04'0 0.2
2017-Sep-15 10:00N 40°38' W 074°04'0 0.0
2017-Sep-15 09:30N 40°38' W 074°04'0 0.0
2017-Sep-15 09:00N 40°38' W 074°04'0 0.1
2017-Sep-15 08:30N 40°38' W 074°04'0 0.1
2017-Sep-15 08:00N 40°38' W 074°04'0 0.0
2017-Sep-15 07:30N 40°38' W 074°04'0 0.2
2017-Sep-15 07:00N 40°38' W 074°04'0 0.0
2017-Sep-15 06:30N 40°38' W 074°04'0 0.0
2017-Sep-15 06:00N 40°38' W 074°04'0 0.2
2017-Sep-15 05:30N 40°38' W 074°04'0 0.5
2017-Sep-15 05:00N 40°38' W 074°04'0 0.1
2017-Sep-15 04:30N 40°37' W 074°04'0 0.0
2017-Sep-15 04:00N 40°37' W 074°04'0 0.1
2017-Sep-15 03:30N 40°37' W 074°04'0 0.0
2017-Sep-15 03:00N 40°37' W 074°04'0 0.0
2017-Sep-15 02:30N 40°37' W 074°04'0 0.0
2017-Sep-15 02:00N 40°37' W 074°04'0 0.0
2017-Sep-15 01:30N 40°37' W 074°04'0 0.0
2017-Sep-15 01:00N 40°37' W 074°04'0 0.0
2017-Sep-15 00:30N 40°37' W 074°04'0 0.0
2017-Sep-15 00:00N 40°37' W 074°04'0 0.0
2017-Sep-14 23:30N 40°37' W 074°04'0 0.0
2017-Sep-14 23:00N 40°37' W 074°04'0 0.1
2017-Sep-14 22:30N 40°37' W 074°04'0 0.2
2017-Sep-14 22:00N 40°38' W 074°04'2 4.2
2017-Sep-14 21:30N 40°36' W 074°02'5 9.2
2017-Sep-14 21:00N 40°31' W 074°00'4 9.0
2017-Sep-14 20:30N 40°29' W 073°55'5 9.4
2017-Sep-14 20:00N 40°28' W 073°49'3 6.4
2017-Sep-14 19:30N 40°28' W 073°45'4 8.1
2017-Sep-14 19:00N 40°29' W 073°40'2 0.4
2017-Sep-14 14:43N 40°30' W 073°38'0 0.0
2017-Sep-14 14:28N 40°30' W 073°38'0 0.2
2017-Sep-14 13:55N 40°30' W 073°38'0 0.1
2017-Sep-14 13:25N 40°30' W 073°38'0 0.1
2017-Sep-14 12:49N 40°30' W 073°38'0 0.0
2017-Sep-14 12:25N 40°30' W 073°38'0 0.0
2017-Sep-14 10:43N 40°30' W 073°38'0 0.0
2017-Sep-14 10:22N 40°30' W 073°38'0 0.0
2017-Sep-14 09:13N 40°30' W 073°38'0 0.0
2017-Sep-14 08:58N 40°30' W 073°38'0 0.1
2017-Sep-14 08:28N 40°30' W 073°38'0 0.0
2017-Sep-14 07:49N 40°30' W 073°38'0 0.0
2017-Sep-14 07:28N 40°30' W 073°38'0 0.0
2017-Sep-14 06:10N 40°30' W 073°38'0 0.0
2017-Sep-14 01:58N 40°30' W 073°38'0 0.0
2017-Sep-13 18:22N 40°30' W 073°38'0 0.1
2017-Sep-13 17:58N 40°30' W 073°38'2 3.2
2017-Sep-13 17:26N 40°30' W 073°35'5 8.0
2017-Sep-13 16:49N 40°26' W 073°31'310.1
2017-Sep-13 16:30N 40°23' W 073°29'510.4
2017-Sep-13 16:00N 40°19' W 073°27'510.2
2017-Sep-13 15:30N 40°14' W 073°24'510.1
2017-Sep-13 15:00N 40°10' W 073°20'611.8
2017-Sep-13 14:30N 40°06' W 073°14'612.0
2017-Sep-13 14:00N 40°02' W 073°08'612.0
2017-Sep-13 13:30N 39°59' W 073°02'611.4
2017-Sep-13 13:00N 39°54' W 072°57'510.0
2017-Sep-13 12:30N 39°50' W 072°55'4 7.0
2017-Sep-13 12:00N 39°47' W 072°52'611.9
2017-Sep-13 11:30N 39°42' W 072°47'612.2
2017-Sep-13 11:00N 39°38' W 072°42'612.1
2017-Sep-13 10:30N 39°33' W 072°37'612.1
2017-Sep-13 10:00N 39°29' W 072°31'611.8
2017-Sep-13 09:30N 39°25' W 072°26'611.6
2017-Sep-13 09:00N 39°20' W 072°21'611.7
2017-Sep-13 08:31N 39°16' W 072°16'612.3
2017-Sep-13 08:00N 39°12' W 072°10'612.4
2017-Sep-13 07:30N 39°07' W 072°05'612.3
2017-Sep-13 07:00N 39°02' W 071°60'612.0
2017-Sep-13 06:30N 38°58' W 071°55'611.8
2017-Sep-13 06:00N 38°53' W 071°49'611.9
2017-Sep-13 05:30N 38°49' W 071°44'612.1
2017-Sep-13 05:00N 38°45' W 071°39'612.0
2017-Sep-13 04:30N 38°40' W 071°34'611.9
2017-Sep-13 04:00N 38°36' W 071°29'611.9
2017-Sep-13 03:30N 38°32' W 071°23'612.1
2017-Sep-13 03:00N 38°28' W 071°18'612.0
2017-Sep-13 02:30N 38°24' W 071°12'612.2
2017-Sep-13 02:00N 38°18' W 071°08'612.5
2017-Sep-13 01:30N 38°13' W 071°03'612.3
2017-Sep-13 01:00N 38°09' W 070°58'612.1
2017-Sep-13 00:30N 38°04' W 070°53'612.3
2017-Sep-12 23:59N 37°60' W 070°47'1211.7
2017-Sep-12 22:58N 37°50' W 070°38'612.5
2017-Sep-12 22:30N 37°44' W 070°37'612.7
2017-Sep-12 22:00N 37°38' W 070°36'510.2
2017-Sep-12 21:30N 37°33' W 070°35'  
Track history (hours):
 
Tides and Currents Weather Stations Pressure Air Temp Water Temp Dewpoint Dewpoint Depression Visibility Wind Speed Wind Dir Waves Ship Positions

Energy Centaur

Last reported at 2017-Sep-21 22:51 UTC. Time now 2017-Sep-26 01:57 UTC.
Position N 25°28' W 079°35'.

Length 227 m; draft 8 m.

Type: Tanker. MMSI: 235060303.

Date/timePositionNaut miles runAvg speedWind from/ knotsBaromVisibWave heightAir tempDewpointWater temp
2017-Sep-21 22:51N 25°28' W 079°35'411.6
2017-Sep-21 22:30N 25°32' W 079°34'611.9
2017-Sep-21 22:00N 25°38' W 079°34'612.1
2017-Sep-21 21:31N 25°44' W 079°33'612.0
2017-Sep-21 21:00N 25°50' W 079°32'611.9
2017-Sep-21 20:30N 25°56' W 079°31'611.9
2017-Sep-21 20:00N 26°02' W 079°30'611.9
2017-Sep-21 19:31N 26°08' W 079°29'612.0
2017-Sep-21 19:00N 26°14' W 079°28'612.0
2017-Sep-21 18:31N 26°19' W 079°27'612.0
2017-Sep-21 18:00N 26°26' W 079°27'  
2017-Sep-18 22:34N 38°04' W 074°26'212.4
2017-Sep-18 22:26N 38°05' W 074°26'512.4
2017-Sep-18 21:59N 38°10' W 074°24'612.1
2017-Sep-18 21:30N 38°16' W 074°21'612.6
2017-Sep-18 21:00N 38°22' W 074°19'612.7
2017-Sep-18 20:30N 38°28' W 074°16'612.4
2017-Sep-18 20:00N 38°33' W 074°12'712.5
2017-Sep-18 19:28N 38°39' W 074°09'613.1
2017-Sep-18 19:00N 38°45' W 074°07'713.1
2017-Sep-18 18:31N 38°51' W 074°04'713.2
2017-Sep-18 17:59N 38°58' W 074°01'813.2
2017-Sep-18 17:24N 39°05' W 073°58'513.5
2017-Sep-18 17:00N 39°10' W 073°56'713.6
2017-Sep-18 16:28N 39°17' W 073°53'613.5
2017-Sep-18 16:00N 39°24' W 073°53'713.6
2017-Sep-18 15:30N 39°31' W 073°52'713.6
2017-Sep-18 15:00N 39°37' W 073°51'713.7
2017-Sep-18 14:31N 39°44' W 073°51'713.5
2017-Sep-18 14:00N 39°51' W 073°51'713.6
2017-Sep-18 13:30N 39°58' W 073°50'813.7
2017-Sep-18 12:54N 40°06' W 073°50'513.5
2017-Sep-18 12:31N 40°11' W 073°50'913.7
2017-Sep-18 11:53N 40°20' W 073°49'613.0
2017-Sep-18 11:27N 40°25' W 073°50'4 9.1
2017-Sep-18 11:00N 40°27' W 073°55'611.2
2017-Sep-18 10:30N 40°29' W 074°02'612.3
2017-Sep-18 10:00N 40°30' W 074°09'4 6.4
2017-Sep-18 09:18N 40°31' W 074°15'2 6.0
2017-Sep-18 09:00N 40°33' W 074°15'2 4.6
2017-Sep-18 08:30N 40°34' W 074°13'2 4.5
2017-Sep-18 08:00N 40°36' W 074°12'0 0.3
2017-Sep-18 07:29N 40°37' W 074°12'0 0.0
2017-Sep-18 06:59N 40°37' W 074°12'0 0.0
2017-Sep-18 06:29N 40°37' W 074°12'0 0.0
2017-Sep-18 04:20N 40°37' W 074°12'0 0.0
2017-Sep-18 03:56N 40°37' W 074°12'0 0.0
2017-Sep-18 03:26N 40°37' W 074°12'0 0.0
2017-Sep-18 01:38N 40°37' W 074°12'0 0.0
2017-Sep-17 23:56N 40°37' W 074°12'0 0.0
2017-Sep-17 23:26N 40°37' W 074°12'0 0.0
2017-Sep-17 22:56N 40°37' W 074°12'0 0.0
2017-Sep-17 22:26N 40°37' W 074°12'0 0.0
2017-Sep-17 21:14N 40°37' W 074°12'0 0.0
2017-Sep-17 20:59N 40°37' W 074°12'0 0.0
2017-Sep-17 20:29N 40°37' W 074°12'0 0.0
2017-Sep-17 19:32N 40°37' W 074°12'0 0.0
2017-Sep-17 19:02N 40°37' W 074°12'0 0.0
2017-Sep-17 15:02N 40°37' W 074°12'0 0.0
2017-Sep-17 14:56N 40°37' W 074°12'0 0.0
2017-Sep-17 14:14N 40°37' W 074°12'0 0.0
2017-Sep-16 23:32N 40°37' W 074°12'0 0.0
2017-Sep-16 23:20N 40°37' W 074°12'0 0.0
2017-Sep-16 23:00N 40°37' W 074°12'0 0.0
2017-Sep-16 22:30N 40°37' W 074°12'1 2.3
2017-Sep-16 22:00N 40°38' W 074°12'3 5.0
2017-Sep-16 21:30N 40°39' W 074°09'4 7.6
2017-Sep-16 21:00N 40°39' W 074°04'510.6
2017-Sep-16 20:30N 40°34' W 074°02'713.0
2017-Sep-16 20:00N 40°30' W 073°55'611.3
2017-Sep-16 19:30N 40°27' W 073°49'3 5.8
2017-Sep-16 19:00N 40°28' W 073°45'5 9.3
2017-Sep-16 18:30N 40°29' W 073°39'1 0.3
2017-Sep-16 14:43N 40°29' W 073°38'0 0.1
2017-Sep-16 14:28N 40°29' W 073°38'0 0.0
2017-Sep-16 13:58N 40°29' W 073°38'0 0.0
2017-Sep-16 13:19N 40°29' W 073°38'0 0.0
2017-Sep-16 12:58N 40°29' W 073°38'0 0.0
2017-Sep-16 12:28N 40°29' W 073°38'0 0.0
2017-Sep-16 11:52N 40°29' W 073°38'0 0.1
2017-Sep-16 10:40N 40°29' W 073°38'0 0.0
2017-Sep-16 10:28N 40°29' W 073°38'0 0.1
2017-Sep-16 09:52N 40°29' W 073°38'0 0.1
2017-Sep-16 09:28N 40°29' W 073°38'0 0.1
2017-Sep-16 08:49N 40°29' W 073°38'0 0.0
2017-Sep-16 05:22N 40°29' W 073°38'0 0.1
2017-Sep-16 04:55N 40°29' W 073°38'0 0.1
2017-Sep-16 04:30N 40°29' W 073°38'0 0.1
2017-Sep-16 03:33N 40°29' W 073°38'0 0.1
2017-Sep-16 03:12N 40°29' W 073°38'1 2.4
2017-Sep-16 02:50N 40°30' W 073°39'3 9.5
2017-Sep-16 02:30N 40°29' W 073°42'510.2
2017-Sep-16 02:00N 40°28' W 073°49'612.7
2017-Sep-16 01:30N 40°30' W 073°56'612.8
2017-Sep-16 01:00N 40°35' W 074°02'3 5.9
2017-Sep-16 00:28N 40°38' W 074°04'0 0.0
2017-Sep-16 00:00N 40°38' W 074°04'0 0.3
2017-Sep-15 23:30N 40°38' W 074°04'0 0.4
2017-Sep-15 23:00N 40°38' W 074°04'0 0.1
2017-Sep-15 22:30N 40°38' W 074°04'0 0.0
2017-Sep-15 22:00N 40°38' W 074°04'0 0.0
2017-Sep-15 21:30N 40°38' W 074°04'0 0.1
2017-Sep-15 21:00N 40°38' W 074°04'0 0.1
2017-Sep-15 20:30N 40°38' W 074°04'0 0.1
2017-Sep-15 20:00N 40°38' W 074°04'0 0.0
2017-Sep-15 19:30N 40°38' W 074°04'0 0.0
2017-Sep-15 19:00N 40°38' W 074°04'0 0.1
2017-Sep-15 18:30N 40°38' W 074°04'0 0.0
2017-Sep-15 18:00N 40°38' W 074°04'0 0.0
2017-Sep-15 17:30N 40°38' W 074°04'0 0.4
2017-Sep-15 17:00N 40°38' W 074°04'0 0.3
2017-Sep-15 16:30N 40°38' W 074°04'0 0.0
2017-Sep-15 16:00N 40°37' W 074°04'0 0.0
2017-Sep-15 15:30N 40°37' W 074°04'0 0.0
2017-Sep-15 15:00N 40°37' W 074°04'0 0.0
2017-Sep-15 14:30N 40°37' W 074°04'0 0.0
2017-Sep-15 14:00N 40°37' W 074°04'0 0.0
2017-Sep-15 13:30N 40°37' W 074°04'0 0.0
2017-Sep-15 13:00N 40°37' W 074°04'0 0.1
2017-Sep-15 12:30N 40°37' W 074°04'0 0.0
2017-Sep-15 12:00N 40°37' W 074°04'0 0.1
2017-Sep-15 11:30N 40°37' W 074°04'0 0.2
2017-Sep-15 11:00N 40°38' W 074°04'0 0.4
2017-Sep-15 10:30N 40°38' W 074°04'0 0.2
2017-Sep-15 10:00N 40°38' W 074°04'0 0.0
2017-Sep-15 09:30N 40°38' W 074°04'0 0.0
2017-Sep-15 09:00N 40°38' W 074°04'0 0.1
2017-Sep-15 08:30N 40°38' W 074°04'0 0.1
2017-Sep-15 08:00N 40°38' W 074°04'0 0.0
2017-Sep-15 07:30N 40°38' W 074°04'0 0.2
2017-Sep-15 07:00N 40°38' W 074°04'0 0.0
2017-Sep-15 06:30N 40°38' W 074°04'0 0.0
2017-Sep-15 06:00N 40°38' W 074°04'0 0.2
2017-Sep-15 05:30N 40°38' W 074°04'0 0.5
2017-Sep-15 05:00N 40°38' W 074°04'0 0.1
2017-Sep-15 04:30N 40°37' W 074°04'0 0.0
2017-Sep-15 04:00N 40°37' W 074°04'0 0.1
2017-Sep-15 03:30N 40°37' W 074°04'0 0.0
2017-Sep-15 03:00N 40°37' W 074°04'0 0.0
2017-Sep-15 02:30N 40°37' W 074°04'0 0.0
2017-Sep-15 02:00N 40°37' W 074°04'0 0.0
2017-Sep-15 01:30N 40°37' W 074°04'0 0.0
2017-Sep-15 01:00N 40°37' W 074°04'0 0.0
2017-Sep-15 00:30N 40°37' W 074°04'0 0.0
2017-Sep-15 00:00N 40°37' W 074°04'0 0.0
2017-Sep-14 23:30N 40°37' W 074°04'0 0.0
2017-Sep-14 23:00N 40°37' W 074°04'0 0.1
2017-Sep-14 22:30N 40°37' W 074°04'0 0.2
2017-Sep-14 22:00N 40°38' W 074°04'2 4.2
2017-Sep-14 21:30N 40°36' W 074°02'5 9.2
2017-Sep-14 21:00N 40°31' W 074°00'4 9.0
2017-Sep-14 20:30N 40°29' W 073°55'5 9.4
2017-Sep-14 20:00N 40°28' W 073°49'3 6.4
2017-Sep-14 19:30N 40°28' W 073°45'4 8.1
2017-Sep-14 19:00N 40°29' W 073°40'2 0.4
2017-Sep-14 14:43N 40°30' W 073°38'0 0.0
2017-Sep-14 14:28N 40°30' W 073°38'0 0.2
2017-Sep-14 13:55N 40°30' W 073°38'0 0.1
2017-Sep-14 13:25N 40°30' W 073°38'0 0.1
2017-Sep-14 12:49N 40°30' W 073°38'0 0.0
2017-Sep-14 12:25N 40°30' W 073°38'0 0.0
2017-Sep-14 10:43N 40°30' W 073°38'0 0.0
2017-Sep-14 10:22N 40°30' W 073°38'0 0.0
2017-Sep-14 09:13N 40°30' W 073°38'0 0.0
2017-Sep-14 08:58N 40°30' W 073°38'0 0.1
2017-Sep-14 08:28N 40°30' W 073°38'0 0.0
2017-Sep-14 07:49N 40°30' W 073°38'0 0.0
2017-Sep-14 07:28N 40°30' W 073°38'0 0.0
2017-Sep-14 06:10N 40°30' W 073°38'0 0.0
2017-Sep-14 01:58N 40°30' W 073°38'0 0.0
2017-Sep-13 18:22N 40°30' W 073°38'0 0.1
2017-Sep-13 17:58N 40°30' W 073°38'2 3.2
2017-Sep-13 17:26N 40°30' W 073°35'5 8.0
2017-Sep-13 16:49N 40°26' W 073°31'310.1
2017-Sep-13 16:30N 40°23' W 073°29'510.4
2017-Sep-13 16:00N 40°19' W 073°27'510.2
2017-Sep-13 15:30N 40°14' W 073°24'510.1
2017-Sep-13 15:00N 40°10' W 073°20'611.8
2017-Sep-13 14:30N 40°06' W 073°14'612.0
2017-Sep-13 14:00N 40°02' W 073°08'612.0
2017-Sep-13 13:30N 39°59' W 073°02'611.4
2017-Sep-13 13:00N 39°54' W 072°57'510.0
2017-Sep-13 12:30N 39°50' W 072°55'4 7.0
2017-Sep-13 12:00N 39°47' W 072°52'611.9
2017-Sep-13 11:30N 39°42' W 072°47'612.2
2017-Sep-13 11:00N 39°38' W 072°42'612.1
2017-Sep-13 10:30N 39°33' W 072°37'612.1
2017-Sep-13 10:00N 39°29' W 072°31'611.8
2017-Sep-13 09:30N 39°25' W 072°26'611.6
2017-Sep-13 09:00N 39°20' W 072°21'611.7
2017-Sep-13 08:31N 39°16' W 072°16'612.3
2017-Sep-13 08:00N 39°12' W 072°10'612.4
2017-Sep-13 07:30N 39°07' W 072°05'612.3
2017-Sep-13 07:00N 39°02' W 071°60'612.0
2017-Sep-13 06:30N 38°58' W 071°55'611.8
2017-Sep-13 06:00N 38°53' W 071°49'611.9
2017-Sep-13 05:30N 38°49' W 071°44'612.1
2017-Sep-13 05:00N 38°45' W 071°39'612.0
2017-Sep-13 04:30N 38°40' W 071°34'611.9
2017-Sep-13 04:00N 38°36' W 071°29'611.9
2017-Sep-13 03:30N 38°32' W 071°23'612.1
2017-Sep-13 03:00N 38°28' W 071°18'612.0
2017-Sep-13 02:30N 38°24' W 071°12'612.2
2017-Sep-13 02:00N 38°18' W 071°08'612.5
2017-Sep-13 01:30N 38°13' W 071°03'612.3
2017-Sep-13 01:00N 38°09' W 070°58'612.1
2017-Sep-13 00:30N 38°04' W 070°53'612.3
2017-Sep-12 23:59N 37°60' W 070°47'1211.7
2017-Sep-12 22:58N 37°50' W 070°38'612.5
2017-Sep-12 22:30N 37°44' W 070°37'612.7
2017-Sep-12 22:00N 37°38' W 070°36'510.2
2017-Sep-12 21:30N 37°33' W 070°35'  

Dump ship's entire track history